Country
Station

 

Weather  for  Tivat  -  Yugoslavia    Yugoslavia

  
10 °C (50 °F)
    
 
 

Current METAR for Tivat is :

LYTV 121430Z VRB01KT 9999 FEW040 SCT046 10/07 Q1003 NOSIG

 

This is a report for Tivat - Yugoslavia.
 
The report was made 28 minutes ago, at 14:30 UTC .
The wind was blowing at a speed of 0.5 meters per second (1.2 miles per hour) from variable directions.
 
The temperature was 10 °C (50 °F), with a dew-point at 7 °C (45 °F).
The atmospheric pressure was 1003 hPa (29.62 inHg).
The relative humidity was 81.6%.
 
There were a few clouds at a height of 1219 meters (4000 feet) and scattered clouds at a height of 1402 meters (4600 feet).
 
The overall visibility was greater than 10 kilometers (6.2 miles).
 

 
 
 
 

Country :   A   B   C   D   E   F   G   H   I   J   K   L   M   N   O   P   Q   R   S   T   U   V   W   Y   Z

 

Site Info  |  Disclaimer  |  Credits  |  Privacy
Contact us  |  Add to favorites
© 2013-2019 METARs - All rights reserved